Time;durP1;ratioP1;P1;durP2;ratioP2;P2;SDS_P1;SDS_P2;PMS_P1;PMS_P2;Temp;Humidity;BMP_temperature;BMP_pressure;BME280_temperature;BME280_humidity;BME280_pressure;Samples;Min_cycle;Max_cycle;Signal;HPM_P1;HPM_P2
2020/12/09 00:00:10;;;;;;;34.72;20.70;;;1.00;99.90;;;;;;5016737;28;20112;-83
2020/12/09 00:02:38;;;;;;;35.25;19.80;;;1.00;99.90;;;;;;5016587;28;20568;-82
2020/12/09 00:05:08;;;;;;;30.63;19.02;;;1.00;99.90;;;;;;5016226;28;20046;-82
2020/12/09 00:07:35;;;;;;;31.85;19.63;;;1.00;99.90;;;;;;5015818;28;20493;-83
2020/12/09 00:10:06;;;;;;;33.60;20.27;;;1.00;99.90;;;;;;5013555;28;20052;-82
2020/12/09 00:12:34;;;;;;;34.03;19.27;;;1.00;99.90;;;;;;5014555;28;20486;-82
2020/12/09 00:15:01;;;;;;;38.28;20.42;;;1.00;99.90;;;;;;5014446;28;20061;-82
2020/12/09 00:17:31;;;;;;;31.50;19.60;;;1.00;99.90;;;;;;5013707;28;20050;-82
2020/12/09 00:19:57;;;;;;;31.08;19.92;;;1.00;99.90;;;;;;5014769;28;20117;-82
2020/12/09 00:22:24;;;;;;;28.20;18.50;;;1.00;99.90;;;;;;5014381;28;20442;-82
2020/12/09 00:24:53;;;;;;;28.30;18.55;;;1.00;99.90;;;;;;5014885;28;20042;-82
2020/12/09 00:27:21;;;;;;;34.10;20.15;;;1.00;99.90;;;;;;5014468;28;20050;-83
2020/12/09 00:29:47;;;;;;;30.38;19.23;;;1.00;99.90;;;;;;5019383;28;20113;-84
2020/12/09 00:32:15;;;;;;;31.38;19.77;;;1.00;99.90;;;;;;5019426;28;20114;-84
2020/12/09 00:34:41;;;;;;;27.52;18.27;;;1.00;99.90;;;;;;5018499;28;20140;-83
2020/12/09 00:37:07;;;;;;;32.40;19.05;;;1.00;99.90;;;;;;5017808;28;20045;-83
2020/12/09 00:39:34;;;;;;;35.28;20.35;;;1.00;99.90;;;;;;5017436;28;20104;-82
2020/12/09 00:42:00;;;;;;;31.60;20.15;;;1.00;99.90;;;;;;5017152;28;20061;-83
2020/12/09 00:44:27;;;;;;;41.75;21.70;;;0.90;99.90;;;;;;5016423;28;20085;-83
2020/12/09 00:46:53;;;;;;;33.80;21.40;;;0.80;99.90;;;;;;5016286;28;20128;-82
2020/12/09 00:49:20;;;;;;;36.67;21.60;;;0.90;99.90;;;;;;5016275;28;20049;-83
2020/12/09 00:51:46;;;;;;;40.92;20.80;;;1.00;99.90;;;;;;5017035;28;20053;-83
2020/12/09 00:54:12;;;;;;;36.92;20.55;;;1.00;99.90;;;;;;5017329;28;20438;-83
2020/12/09 00:56:43;;;;;;;30.75;20.13;;;1.00;99.90;;;;;;5015434;28;20105;-83
2020/12/09 00:59:09;;;;;;;30.77;19.23;;;1.10;99.90;;;;;;5016003;28;20050;-83
2020/12/09 01:01:36;;;;;;;32.10;19.75;;;1.10;99.90;;;;;;5015044;28;20137;-83
2020/12/09 01:04:04;;;;;;;32.58;19.30;;;1.10;99.90;;;;;;5015923;28;20518;-83
2020/12/09 01:06:34;;;;;;;31.85;18.88;;;1.20;99.90;;;;;;5014602;28;20077;-82
2020/12/09 01:09:05;;;;;;;39.60;21.92;;;1.20;99.90;;;;;;5016346;28;20081;-83
2020/12/09 01:11:31;;;;;;;34.00;19.95;;;1.20;99.90;;;;;;5013925;28;20050;-82
2020/12/09 01:13:57;;;;;;;33.28;20.52;;;1.10;99.90;;;;;;5014237;28;20050;-82
2020/12/09 01:16:24;;;;;;;35.92;20.48;;;1.10;99.90;;;;;;5015053;28;20050;-82
2020/12/09 01:18:50;;;;;;;32.63;20.00;;;1.20;99.90;;;;;;5015641;28;20509;-83
2020/12/09 01:21:29;;;;;;;34.17;20.10;;;1.20;99.90;;;;;;5015578;28;20069;-83
2020/12/09 01:23:55;;;;;;;30.60;19.27;;;1.20;99.90;;;;;;5013867;28;20467;-83
2020/12/09 01:26:22;;;;;;;31.95;19.77;;;1.30;99.90;;;;;;5013395;28;20042;-83
2020/12/09 01:28:48;;;;;;;29.50;18.48;;;1.20;99.90;;;;;;5013662;28;20465;-84
2020/12/09 01:31:21;;;;;;;27.40;17.48;;;1.20;99.90;;;;;;5015349;28;20077;-83
2020/12/09 01:33:48;;;;;;;27.38;17.13;;;1.30;99.90;;;;;;5013767;28;20399;-82
2020/12/09 01:36:22;;;;;;;25.67;17.38;;;1.30;99.90;;;;;;5015082;28;20414;-82
2020/12/09 01:38:49;;;;;;;26.60;17.95;;;1.30;99.90;;;;;;5013255;28;20132;-83
2020/12/09 01:41:20;;;;;;;33.63;18.92;;;1.30;99.90;;;;;;5013627;28;20050;-82
2020/12/09 01:43:47;;;;;;;27.35;17.52;;;1.30;99.90;;;;;;5013669;28;20068;-83
2020/12/09 01:46:19;;;;;;;29.85;19.13;;;1.30;99.90;;;;;;5015421;28;20084;-82
2020/12/09 01:48:45;;;;;;;30.50;19.67;;;1.30;99.90;;;;;;5013503;28;20054;-83
2020/12/09 01:51:15;;;;;;;26.55;16.65;;;1.30;99.90;;;;;;5013308;28;20069;-82
2020/12/09 01:53:41;;;;;;;30.35;18.33;;;1.30;99.90;;;;;;5012564;28;20550;-82
2020/12/09 01:56:07;;;;;;;25.40;16.73;;;1.40;99.90;;;;;;5013781;28;20082;-83
2020/12/09 01:58:34;;;;;;;24.77;17.17;;;1.40;99.90;;;;;;5014139;28;20046;-82
2020/12/09 02:01:00;;;;;;;25.88;16.80;;;1.40;99.90;;;;;;5012765;28;20046;-82
2020/12/09 02:03:26;;;;;;;30.20;18.48;;;1.40;99.90;;;;;;5013641;28;20144;-82
2020/12/09 02:05:53;;;;;;;27.48;17.33;;;1.30;99.90;;;;;;5013777;28;20054;-83
2020/12/09 02:08:20;;;;;;;26.17;17.70;;;1.30;99.90;;;;;;5012680;28;20085;-82
2020/12/09 02:10:58;;;;;;;28.13;17.17;;;1.20;99.90;;;;;;5012370;28;20084;-83
2020/12/09 02:13:26;;;;;;;27.40;17.88;;;1.30;99.90;;;;;;5013964;28;20050;-82
2020/12/09 02:15:52;;;;;;;26.02;17.60;;;1.30;99.90;;;;;;5012530;28;20050;-83
2020/12/09 02:18:19;;;;;;;30.65;19.55;;;1.30;99.90;;;;;;5017905;28;20046;-84
2020/12/09 02:20:45;;;;;;;38.03;21.58;;;1.30;99.90;;;;;;5017756;28;20112;-84
2020/12/09 02:23:11;;;;;;;45.92;23.48;;;1.10;99.90;;;;;;5016739;28;20092;-83
2020/12/09 02:25:38;;;;;;;41.83;22.98;;;1.00;99.90;;;;;;5016367;28;20133;-84
2020/12/09 02:28:04;;;;;;;38.05;21.63;;;0.90;99.90;;;;;;5016052;28;20132;-83
2020/12/09 02:30:31;;;;;;;31.58;20.67;;;0.90;99.90;;;;;;5016670;28;20081;-83
2020/12/09 02:32:57;;;;;;;32.80;20.45;;;1.10;99.90;;;;;;5016694;28;20050;-83
2020/12/09 02:35:24;;;;;;;32.70;20.33;;;1.20;99.90;;;;;;5016876;28;20129;-83
2020/12/09 02:37:53;;;;;;;29.85;18.77;;;1.30;99.90;;;;;;5014841;28;20050;-83
2020/12/09 02:40:23;;;;;;;30.60;19.55;;;1.40;99.90;;;;;;5015907;28;20046;-82
2020/12/09 02:42:49;;;;;;;30.23;18.25;;;1.40;99.90;;;;;;5016165;28;20078;-83
2020/12/09 02:45:16;;;;;;;33.17;19.05;;;1.40;99.90;;;;;;5015625;28;20465;-83
2020/12/09 02:47:42;;;;;;;25.25;17.35;;;1.50;99.90;;;;;;5013555;28;20136;-83
2020/12/09 02:50:09;;;;;;;27.42;17.40;;;1.50;99.90;;;;;;5017214;28;20089;-83
2020/12/09 02:52:35;;;;;;;26.13;17.05;;;1.50;99.90;;;;;;5017574;28;20092;-83
2020/12/09 02:55:01;;;;;;;27.52;17.98;;;1.60;99.90;;;;;;5018946;28;20049;-83
2020/12/09 02:57:28;;;;;;;28.40;17.92;;;1.60;99.90;;;;;;5018692;28;20053;-83
2020/12/09 02:59:54;;;;;;;25.50;17.58;;;1.60;99.90;;;;;;5017730;28;20218;-83
2020/12/09 03:02:20;;;;;;;25.08;16.33;;;1.70;99.90;;;;;;5016360;28;20081;-82
2020/12/09 03:04:47;;;;;;;22.75;16.20;;;1.60;99.90;;;;;;5018485;28;20048;-83
2020/12/09 03:07:13;;;;;;;30.63;17.67;;;1.70;99.90;;;;;;5017652;28;20125;-83
2020/12/09 03:09:40;;;;;;;27.75;18.63;;;1.60;99.90;;;;;;5016103;28;20049;-83
2020/12/09 03:12:06;;;;;;;27.02;18.05;;;1.40;99.90;;;;;;5017556;28;20060;-84
2020/12/09 03:14:32;;;;;;;29.15;18.55;;;1.40;99.90;;;;;;5015896;28;20083;-83
2020/12/09 03:16:58;;;;;;;30.33;19.05;;;1.40;99.90;;;;;;5017011;28;20057;-83
2020/12/09 03:19:25;;;;;;;36.78;19.63;;;1.40;99.90;;;;;;5015406;28;20100;-83
2020/12/09 03:21:51;;;;;;;29.13;17.95;;;1.40;99.90;;;;;;5016722;28;20104;-83
2020/12/09 03:24:17;;;;;;;28.60;18.45;;;1.50;99.90;;;;;;5015329;28;20533;-83
2020/12/09 03:26:44;;;;;;;29.20;17.85;;;1.60;99.90;;;;;;5015512;28;20045;-83
2020/12/09 03:29:10;;;;;;;28.13;17.77;;;1.60;99.90;;;;;;5015107;28;20498;-83
2020/12/09 03:31:36;;;;;;;28.42;18.48;;;1.60;99.90;;;;;;5015395;28;20054;-83
2020/12/09 03:34:03;;;;;;;34.65;21.10;;;1.60;99.90;;;;;;5015171;28;20137;-83
2020/12/09 03:36:29;;;;;;;25.17;16.92;;;1.50;99.90;;;;;;5016151;28;20557;-83
2020/12/09 03:38:56;;;;;;;28.75;16.95;;;1.50;99.90;;;;;;5016244;28;20046;-83
2020/12/09 03:41:22;;;;;;;28.33;17.75;;;1.60;99.90;;;;;;5015376;28;20076;-83
2020/12/09 03:43:48;;;;;;;29.50;18.13;;;1.60;99.90;;;;;;5017539;28;20152;-83
2020/12/09 03:46:14;;;;;;;26.58;17.45;;;1.60;99.90;;;;;;5016405;28;20112;-83
2020/12/09 03:48:40;;;;;;;29.38;18.10;;;1.60;99.90;;;;;;5015223;28;20140;-83
2020/12/09 03:51:07;;;;;;;26.15;18.10;;;1.70;99.90;;;;;;5014103;28;20081;-83
2020/12/09 03:53:34;;;;;;;29.15;19.50;;;1.70;99.90;;;;;;5014421;28;20145;-84
2020/12/09 03:56:01;;;;;;;27.70;18.25;;;1.70;99.90;;;;;;5014137;28;20073;-83
2020/12/09 03:58:27;;;;;;;26.45;17.63;;;1.70;99.90;;;;;;5015964;28;20510;-83
2020/12/09 04:00:53;;;;;;;26.40;16.92;;;1.70;99.90;;;;;;5013786;28;20045;-83
2020/12/09 04:03:19;;;;;;;27.00;17.23;;;1.70;99.90;;;;;;5015224;28;20046;-83
2020/12/09 04:05:46;;;;;;;25.45;17.38;;;1.70;99.90;;;;;;5018777;28;20072;-84
2020/12/09 04:08:14;;;;;;;28.15;18.70;;;1.70;99.90;;;;;;5020827;28;20132;-85
2020/12/09 04:10:40;;;;;;;27.73;17.83;;;1.70;99.90;;;;;;5019684;28;20050;-85
2020/12/09 04:13:06;;;;;;;30.30;18.35;;;1.70;99.90;;;;;;5020210;28;20147;-84
2020/12/09 04:15:32;;;;;;;27.17;18.13;;;1.60;99.90;;;;;;5021106;28;20120;-84
2020/12/09 04:17:59;;;;;;;24.10;17.88;;;1.60;99.90;;;;;;5018060;28;20054;-84
2020/12/09 04:20:25;;;;;;;24.98;17.75;;;1.70;99.90;;;;;;5018972;28;20046;-83
2020/12/09 04:22:51;;;;;;;30.45;18.65;;;1.70;99.90;;;;;;5018747;28;20076;-84
2020/12/09 04:25:18;;;;;;;27.15;17.70;;;1.70;99.90;;;;;;5019687;28;20128;-84
2020/12/09 04:27:45;;;;;;;29.60;19.42;;;1.70;99.90;;;;;;5017245;28;20046;-83
2020/12/09 04:30:11;;;;;;;28.38;19.30;;;1.60;99.90;;;;;;5017999;28;20049;-83
2020/12/09 04:32:37;;;;;;;29.75;18.55;;;1.50;99.90;;;;;;5016849;28;20050;-84
2020/12/09 04:35:04;;;;;;;27.45;17.88;;;1.60;99.90;;;;;;5016118;28;20060;-83
2020/12/09 04:37:30;;;;;;;29.45;19.10;;;1.60;99.90;;;;;;5016140;28;20566;-83
2020/12/09 04:39:57;;;;;;;29.60;18.85;;;1.60;99.90;;;;;;5015907;28;20056;-84
2020/12/09 04:42:25;;;;;;;29.17;18.67;;;1.60;99.90;;;;;;5017124;28;20481;-84
2020/12/09 04:44:52;;;;;;;27.80;18.35;;;1.70;99.90;;;;;;5015786;28;20133;-83
2020/12/09 04:47:27;;;;;;;39.97;20.35;;;1.80;99.90;;;;;;5016510;28;20167;-84
2020/12/09 04:50:06;;;;;;;28.88;18.58;;;1.60;99.90;;;;;;5015701;28;20073;-83
2020/12/09 04:52:35;;;;;;;34.88;20.98;;;1.70;99.90;;;;;;5016318;28;20133;-83
2020/12/09 04:55:09;;;;;;;31.27;17.65;;;1.60;99.90;;;;;;5014789;28;20513;-83
2020/12/09 04:57:37;;;;;;;26.85;17.98;;;1.60;99.90;;;;;;5014719;28;20077;-83
2020/12/09 05:00:06;;;;;;;28.05;17.90;;;1.70;99.90;;;;;;5014599;28;20050;-83
2020/12/09 05:02:52;;;;;;;25.65;17.65;;;1.80;99.90;;;;;;5015458;28;20057;-84
2020/12/09 05:05:23;;;;;;;29.27;18.40;;;1.80;99.90;;;;;;5015946;28;20080;-83
2020/12/09 05:07:52;;;;;;;33.58;19.35;;;1.70;99.90;;;;;;5014062;28;20118;-83
2020/12/09 05:10:21;;;;;;;33.28;20.20;;;1.70;99.90;;;;;;5014737;28;20085;-83
2020/12/09 05:12:49;;;;;;;35.03;21.58;;;1.50;99.90;;;;;;5012445;28;20111;-83
2020/12/09 05:15:25;;;;;;;32.65;20.13;;;1.40;99.90;;;;;;5014900;28;20137;-83
2020/12/09 05:18:07;;;;;;;48.45;22.75;;;1.50;99.90;;;;;;5013058;28;20426;-83
2020/12/09 05:20:38;;;;;;;40.15;21.17;;;1.30;99.90;;;;;;5013166;28;20110;-83
2020/12/09 05:23:07;;;;;;;38.70;22.00;;;1.30;99.90;;;;;;5014293;28;20509;-83
2020/12/09 05:25:36;;;;;;;158.65;75.10;;;1.20;99.90;;;;;;5016384;28;20077;-84
2020/12/09 05:28:03;;;;;;;88.60;45.55;;;1.30;99.90;;;;;;5014162;28;20105;-83
2020/12/09 05:30:41;;;;;;;68.20;37.17;;;1.40;99.90;;;;;;5015176;28;20140;-83
2020/12/09 05:33:09;;;;;;;39.15;23.13;;;1.50;99.90;;;;;;5013476;28;20058;-83
2020/12/09 05:35:35;;;;;;;30.88;19.50;;;1.60;99.90;;;;;;5014885;28;20468;-83
2020/12/09 05:38:18;;;;;;;32.88;20.13;;;1.60;99.90;;;;;;5012666;28;20137;-83
2020/12/09 05:40:45;;;;;;;38.00;20.75;;;1.70;99.90;;;;;;5013182;28;20102;-83
2020/12/09 05:43:17;;;;;;;35.05;20.38;;;1.70;99.90;;;;;;5012537;28;20493;-84
2020/12/09 05:45:43;;;;;;;33.15;19.85;;;1.60;99.90;;;;;;5013898;28;20505;-83
2020/12/09 05:48:17;;;;;;;30.40;19.30;;;1.60;99.90;;;;;;5013076;28;20069;-84
2020/12/09 05:50:58;;;;;;;25.50;18.83;;;1.70;99.90;;;;;;5012497;28;20081;-83
2020/12/09 05:53:27;;;;;;;29.52;18.88;;;1.80;99.90;;;;;;5013791;28;20473;-84
2020/12/09 05:56:15;;;;;;;29.27;18.10;;;1.80;99.90;;;;;;5018416;28;20140;-85
2020/12/09 05:58:43;;;;;;;32.78;18.70;;;1.80;99.90;;;;;;5020798;28;20073;-85
2020/12/09 06:01:15;;;;;;;32.13;18.42;;;1.90;99.90;;;;;;5019299;28;20074;-85
2020/12/09 06:03:52;;;;;;;29.67;18.42;;;1.90;99.90;;;;;;5019028;28;20081;-84
2020/12/09 06:06:27;;;;;;;30.45;18.60;;;1.80;99.90;;;;;;5022602;28;20050;-84
2020/12/09 06:09:00;;;;;;;35.17;19.15;;;1.70;99.90;;;;;;5021381;28;20137;-85
2020/12/09 06:11:31;;;;;;;34.75;19.80;;;1.70;99.90;;;;;;5020716;28;20137;-84
2020/12/09 06:13:58;;;;;;;38.50;22.15;;;1.80;99.90;;;;;;5020373;28;20054;-83
2020/12/09 06:16:25;;;;;;;43.30;22.65;;;1.90;99.90;;;;;;5021051;28;20049;-84
2020/12/09 06:18:54;;;;;;;52.15;26.30;;;1.80;99.90;;;;;;5018807;28;20048;-84
2020/12/09 06:21:21;;;;;;;46.13;26.17;;;1.90;99.90;;;;;;5021290;28;20049;-84
2020/12/09 06:23:48;;;;;;;55.75;29.20;;;1.90;99.90;;;;;;5020268;28;20142;-85
2020/12/09 06:26:18;;;;;;;48.33;25.27;;;1.90;99.90;;;;;;5023398;28;20041;-84
2020/12/09 06:28:47;;;;;;;36.03;21.05;;;1.90;99.90;;;;;;5019715;28;20141;-84
2020/12/09 06:31:18;;;;;;;35.85;22.23;;;1.90;99.90;;;;;;5021390;28;20053;-84
2020/12/09 06:33:46;;;;;;;34.08;21.27;;;1.80;99.90;;;;;;5019085;28;20129;-84
2020/12/09 06:36:13;;;;;;;30.08;18.42;;;1.90;99.90;;;;;;5021423;28;20084;-83
2020/12/09 06:39:00;;;;;;;28.60;18.10;;;1.90;99.90;;;;;;5020542;28;20104;-84
2020/12/09 06:41:26;;;;;;;31.10;17.45;;;2.00;99.90;;;;;;5019143;28;20050;-83
2020/12/09 06:44:07;;;;;;;25.50;16.95;;;2.00;99.90;;;;;;5020031;28;20080;-84
2020/12/09 06:46:39;;;;;;;26.17;17.15;;;2.00;99.90;;;;;;5018524;28;20494;-84
2020/12/09 06:49:28;;;;;;;24.63;16.90;;;2.00;99.90;;;;;;5017924;28;20092;-84
2020/12/09 06:51:56;;;;;;;22.58;16.08;;;1.90;99.90;;;;;;5017869;28;20498;-84
2020/12/09 06:54:39;;;;;;;30.75;18.08;;;1.90;99.90;;;;;;5018024;28;20137;-84
2020/12/09 06:57:14;;;;;;;25.27;16.90;;;1.90;99.90;;;;;;5019560;28;20149;-84
2020/12/09 06:59:41;;;;;;;31.42;19.15;;;1.90;99.90;;;;;;5022549;28;20078;-84
2020/12/09 07:02:08;;;;;;;28.02;17.83;;;2.00;99.90;;;;;;5027738;28;20053;-85
2020/12/09 07:04:53;;;;;;;29.20;17.23;;;1.90;99.90;;;;;;5030262;28;20046;-84
2020/12/09 07:07:40;;;;;;;27.42;16.63;;;1.90;99.90;;;;;;5027695;28;20125;-84
2020/12/09 07:10:17;;;;;;;27.00;18.13;;;1.90;99.90;;;;;;5027554;28;20078;-84
2020/12/09 07:12:45;;;;;;;31.88;17.50;;;1.90;99.90;;;;;;5022317;28;20046;-84
2020/12/09 07:15:12;;;;;;;28.30;17.95;;;1.90;99.90;;;;;;5023830;28;20053;-84
2020/12/09 07:17:38;;;;;;;40.08;19.17;;;1.90;99.90;;;;;;5022361;28;20053;-84
2020/12/09 07:20:05;;;;;;;29.75;19.27;;;1.90;99.90;;;;;;5023356;28;20052;-84
2020/12/09 07:22:32;;;;;;;31.92;18.73;;;1.90;99.90;;;;;;5021763;28;20042;-84
2020/12/09 07:25:00;;;;;;;26.75;17.77;;;2.00;99.90;;;;;;5024566;28;20109;-84
2020/12/09 07:27:28;;;;;;;27.13;17.63;;;1.90;99.90;;;;;;5022423;28;20474;-84
2020/12/09 07:30:00;;;;;;;29.08;17.98;;;2.00;99.90;;;;;;5015474;28;20153;-84
2020/12/09 07:32:26;;;;;;;28.58;19.52;;;2.00;99.90;;;;;;5015606;28;20148;-84
2020/12/09 07:34:57;;;;;;;34.78;18.80;;;2.00;99.90;;;;;;5020497;28;20077;-85
2020/12/09 07:37:26;;;;;;;32.97;18.65;;;2.00;99.90;;;;;;5022573;28;20113;-85
2020/12/09 07:39:54;;;;;;;27.25;17.85;;;2.00;99.90;;;;;;5021236;28;20461;-84
2020/12/09 07:42:22;;;;;;;36.20;19.50;;;2.10;99.90;;;;;;5022094;28;20096;-84
2020/12/09 07:44:50;;;;;;;27.80;18.35;;;2.10;99.90;;;;;;5022376;28;20462;-84
2020/12/09 07:47:22;;;;;;;31.58;20.58;;;2.10;99.90;;;;;;5023399;28;20046;-84
2020/12/09 07:49:53;;;;;;;35.10;20.58;;;2.00;99.90;;;;;;5028005;28;20081;-85
2020/12/09 07:52:27;;;;;;;34.20;21.05;;;2.00;99.90;;;;;;5026691;28;20049;-85
2020/12/09 07:55:02;;;;;;;30.67;19.27;;;2.00;99.90;;;;;;5025751;28;20049;-85
2020/12/09 07:57:33;;;;;;;28.88;19.80;;;2.00;99.90;;;;;;5026139;28;20426;-85
2020/12/09 08:00:01;;;;;;;33.88;21.20;;;2.10;99.90;;;;;;5018872;28;20402;-84
2020/12/09 08:02:28;;;;;;;31.88;21.13;;;2.20;99.90;;;;;;5020257;28;20568;-84
2020/12/09 08:05:20;;;;;;;37.80;22.15;;;2.30;99.90;;;;;;5020804;28;20085;-84
2020/12/09 08:07:49;;;;;;;35.58;20.98;;;2.20;99.90;;;;;;5019881;28;20417;-84
2020/12/09 08:10:27;;;;;;;39.55;23.30;;;2.20;99.90;;;;;;5019790;28;20077;-84
2020/12/09 08:13:05;;;;;;;33.00;21.27;;;2.30;99.90;;;;;;5019827;28;20046;-84
2020/12/09 08:15:33;;;;;;;34.70;20.50;;;2.30;99.90;;;;;;5020522;28;20491;-84
2020/12/09 08:17:59;;;;;;;33.17;21.27;;;2.40;99.90;;;;;;5019581;28;20582;-84
2020/12/09 08:20:26;;;;;;;34.15;20.40;;;2.40;99.90;;;;;;5018865;28;20130;-84
2020/12/09 08:23:00;;;;;;;38.90;21.70;;;2.50;99.90;;;;;;5018305;28;20041;-84
2020/12/09 08:25:30;;;;;;;38.03;22.85;;;2.50;99.90;;;;;;5020975;28;20081;-84
2020/12/09 08:28:06;;;;;;;34.03;22.20;;;2.30;99.90;;;;;;5020772;28;20046;-84
2020/12/09 08:30:33;;;;;;;52.25;30.65;;;2.30;99.90;;;;;;5019732;28;20077;-84
2020/12/09 08:33:10;;;;;;;39.88;23.77;;;2.30;99.90;;;;;;5019461;28;20120;-85
2020/12/09 08:35:59;;;;;;;40.95;24.08;;;2.20;99.90;;;;;;5018896;28;20082;-84
2020/12/09 08:38:34;;;;;;;55.90;31.92;;;2.30;99.90;;;;;;5019957;28;20053;-84
2020/12/09 08:41:22;;;;;;;41.13;24.98;;;2.40;99.90;;;;;;5019018;28;20422;-84
2020/12/09 08:43:49;;;;;;;40.40;23.00;;;2.40;99.90;;;;;;5020239;28;20129;-84
2020/12/09 08:46:15;;;;;;;41.33;24.10;;;2.40;99.90;;;;;;5018632;28;20399;-85
2020/12/09 08:48:42;;;;;;;40.58;25.05;;;2.50;99.90;;;;;;5018860;28;20042;-85
2020/12/09 08:51:08;;;;;;;44.47;26.95;;;2.50;99.90;;;;;;5019772;28;20073;-84
2020/12/09 08:53:35;;;;;;;45.88;27.77;;;2.60;99.90;;;;;;5018101;28;20561;-84
2020/12/09 08:56:01;;;;;;;41.28;26.77;;;2.60;99.90;;;;;;5018156;28;20058;-84
2020/12/09 08:58:27;;;;;;;48.00;27.13;;;2.70;99.90;;;;;;5018820;28;20474;-84
2020/12/09 09:00:54;;;;;;;41.17;25.63;;;2.80;99.90;;;;;;5018792;28;20463;-84
2020/12/09 09:03:21;;;;;;;83.55;41.45;;;2.80;99.90;;;;;;5018538;28;20080;-84
2020/12/09 09:05:53;;;;;;;38.03;22.38;;;2.90;99.90;;;;;;5019391;28;20133;-84
2020/12/09 09:08:19;;;;;;;41.45;24.80;;;2.80;99.90;;;;;;5019442;28;20441;-84
2020/12/09 09:10:46;;;;;;;48.83;28.48;;;2.80;99.90;;;;;;5018493;28;20116;-84
2020/12/09 09:13:12;;;;;;;50.03;29.00;;;2.80;99.90;;;;;;5018679;28;20140;-84
2020/12/09 09:15:39;;;;;;;41.50;23.95;;;2.80;99.90;;;;;;5017457;28;20109;-84
2020/12/09 09:18:07;;;;;;;40.92;23.13;;;2.80;99.90;;;;;;5019063;28;20539;-84
2020/12/09 09:20:33;;;;;;;39.20;21.90;;;2.90;99.90;;;;;;5015315;28;20137;-84
2020/12/09 09:23:04;;;;;;;34.47;20.55;;;3.00;99.90;;;;;;5014391;28;20045;-84
2020/12/09 09:25:35;;;;;;;37.53;22.48;;;3.00;99.90;;;;;;5013889;28;20413;-84
2020/12/09 09:28:02;;;;;;;37.50;23.33;;;3.10;99.90;;;;;;5014313;28;20045;-84
2020/12/09 09:30:29;;;;;;;39.63;24.10;;;3.20;99.90;;;;;;5015022;28;20089;-84
2020/12/09 09:32:55;;;;;;;58.97;33.58;;;3.30;99.90;;;;;;5014082;28;20085;-84
2020/12/09 09:35:21;;;;;;;58.40;33.17;;;3.40;99.90;;;;;;5014278;28;20468;-84
2020/12/09 09:37:48;;;;;;;57.25;31.77;;;3.40;99.90;;;;;;5014692;28;20132;-85
2020/12/09 09:40:14;;;;;;;52.13;27.98;;;3.40;99.90;;;;;;5019360;28;20046;-85
2020/12/09 09:42:41;;;;;;;51.67;26.95;;;3.40;99.90;;;;;;5025563;28;20106;-85
2020/12/09 09:45:11;;;;;;;52.55;29.17;;;3.50;99.90;;;;;;5024038;28;20077;-85
2020/12/09 09:47:37;;;;;;;54.10;29.95;;;3.60;99.90;;;;;;5023889;28;20073;-85
2020/12/09 09:50:07;;;;;;;54.28;31.15;;;3.70;99.90;;;;;;5022673;28;20113;-85
2020/12/09 09:52:34;;;;;;;48.15;25.52;;;3.70;99.90;;;;;;5022976;28;20077;-84
2020/12/09 09:55:01;;;;;;;46.30;25.05;;;3.90;99.90;;;;;;5021054;28;20482;-84
2020/12/09 09:57:29;;;;;;;47.45;23.70;;;3.90;99.90;;;;;;5022368;28;20052;-84
2020/12/09 09:59:56;;;;;;;49.10;24.25;;;4.00;99.90;;;;;;5020962;28;20105;-84
2020/12/09 10:02:22;;;;;;;44.72;23.52;;;4.00;99.90;;;;;;5020852;28;20045;-85
2020/12/09 10:04:48;;;;;;;46.60;22.83;;;4.00;99.90;;;;;;5018989;28;20046;-84
2020/12/09 10:07:15;;;;;;;53.05;24.02;;;3.90;99.90;;;;;;5020671;28;20046;-84
2020/12/09 10:09:41;;;;;;;45.83;22.77;;;4.00;99.90;;;;;;5020156;28;20423;-84
2020/12/09 10:12:08;;;;;;;46.70;23.55;;;4.00;99.90;;;;;;5017587;28;20414;-84
2020/12/09 10:14:35;;;;;;;41.40;22.00;;;4.00;99.90;;;;;;5017694;28;20081;-84
2020/12/09 10:17:02;;;;;;;43.05;23.30;;;3.90;99.90;;;;;;5018800;28;20470;-84
2020/12/09 10:19:28;;;;;;;46.65;23.17;;;4.00;99.90;;;;;;5018879;28;20057;-84
2020/12/09 10:21:58;;;;;;;50.20;25.00;;;4.00;99.90;;;;;;5017155;28;20078;-84
2020/12/09 10:24:24;;;;;;;47.20;24.55;;;4.00;99.90;;;;;;5015863;28;20498;-84
2020/12/09 10:26:51;;;;;;;48.75;24.27;;;4.10;99.90;;;;;;5016087;28;20471;-84
2020/12/09 10:29:17;;;;;;;45.22;24.92;;;4.10;99.90;;;;;;5015932;28;20046;-84
2020/12/09 10:31:45;;;;;;;46.45;24.27;;;4.20;99.90;;;;;;5015560;28;20057;-84
2020/12/09 10:34:15;;;;;;;47.20;24.33;;;4.20;99.90;;;;;;5015833;28;20049;-84
2020/12/09 10:36:48;;;;;;;47.75;25.35;;;4.20;99.90;;;;;;5016104;28;20050;-84
2020/12/09 10:39:17;;;;;;;47.85;25.10;;;4.30;99.90;;;;;;5016682;28;20517;-84
2020/12/09 10:41:43;;;;;;;46.95;24.83;;;4.40;99.90;;;;;;5015948;28;20082;-84
2020/12/09 10:44:10;;;;;;;45.65;24.50;;;4.60;99.90;;;;;;5016812;28;20129;-84
2020/12/09 10:46:38;;;;;;;57.67;30.33;;;4.70;99.90;;;;;;5014896;28;20418;-84
2020/12/09 10:49:06;;;;;;;59.65;31.70;;;4.70;99.90;;;;;;5015268;28;20081;-84
2020/12/09 10:51:33;;;;;;;48.70;26.27;;;4.80;99.90;;;;;;5016649;28;20140;-84
2020/12/09 10:54:00;;;;;;;48.80;26.75;;;4.90;99.90;;;;;;5014615;28;20061;-84
2020/12/09 10:56:33;;;;;;;53.60;30.73;;;4.90;99.90;;;;;;5015061;28;20088;-84
2020/12/09 10:58:59;;;;;;;53.03;29.77;;;5.20;99.90;;;;;;5014024;28;20140;-84
2020/12/09 11:01:27;;;;;;;59.38;30.35;;;5.30;99.90;;;;;;5016158;28;20124;-84
2020/12/09 11:03:54;;;;;;;57.45;33.97;;;5.20;99.90;;;;;;5015987;28;20096;-84
2020/12/09 11:06:31;;;;;;;59.00;34.35;;;5.20;99.90;;;;;;5014960;28;20391;-84
2020/12/09 11:08:59;;;;;;;51.20;29.02;;;5.00;99.90;;;;;;5014593;28;20049;-84
2020/12/09 11:11:25;;;;;;;51.25;27.15;;;4.90;99.90;;;;;;5017405;28;20461;-84
2020/12/09 11:13:52;;;;;;;50.22;28.25;;;4.90;99.90;;;;;;5015199;28;20081;-84
2020/12/09 11:16:19;;;;;;;53.50;28.05;;;4.80;99.90;;;;;;5015052;28;20136;-84
2020/12/09 11:18:46;;;;;;;58.65;31.30;;;4.70;99.90;;;;;;5014882;28;20485;-84
2020/12/09 11:21:17;;;;;;;64.90;34.05;;;4.60;99.90;;;;;;5014928;28;20154;-84
2020/12/09 11:23:47;;;;;;;57.85;31.17;;;4.60;99.90;;;;;;5014628;28;20056;-84
2020/12/09 11:26:15;;;;;;;66.25;32.70;;;4.50;99.90;;;;;;5015211;28;20529;-84
2020/12/09 11:28:41;;;;;;;63.28;33.40;;;4.30;99.90;;;;;;5015395;28;20057;-84
2020/12/09 11:31:08;;;;;;;70.15;35.17;;;4.20;99.90;;;;;;5014821;28;20184;-84
2020/12/09 11:33:35;;;;;;;70.63;31.48;;;4.10;99.90;;;;;;5024436;28;20077;-85
2020/12/09 11:36:02;;;;;;;56.70;30.25;;;4.20;99.90;;;;;;5026003;28;20050;-85
2020/12/09 11:38:28;;;;;;;51.90;27.77;;;4.10;99.90;;;;;;5024493;28;20109;-85
2020/12/09 11:40:54;;;;;;;57.15;29.63;;;4.20;99.90;;;;;;5023775;28;20046;-85
2020/12/09 11:43:21;;;;;;;57.95;28.33;;;4.20;99.90;;;;;;5024197;28;20046;-85
2020/12/09 11:45:48;;;;;;;51.75;27.20;;;4.30;99.90;;;;;;5026084;28;20129;-85
2020/12/09 11:48:15;;;;;;;52.10;27.08;;;4.50;99.90;;;;;;5022836;28;20046;-85
2020/12/09 11:50:42;;;;;;;47.92;26.83;;;4.90;99.90;;;;;;5023281;28;20124;-84
2020/12/09 11:53:08;;;;;;;49.85;26.73;;;5.10;99.90;;;;;;5022963;28;20081;-85
2020/12/09 11:55:35;;;;;;;47.80;26.48;;;5.40;99.90;;;;;;5024193;28;20054;-85
2020/12/09 11:58:02;;;;;;;43.55;25.63;;;5.60;99.90;;;;;;5022352;28;20050;-84
2020/12/09 12:00:29;;;;;;;42.25;23.42;;;5.80;99.90;;;;;;5023601;28;20046;-84
2020/12/09 12:02:55;;;;;;;43.05;25.23;;;5.90;99.90;;;;;;5018578;28;20054;-85
2020/12/09 12:05:24;;;;;;;41.85;24.05;;;6.00;99.90;;;;;;5016246;28;20510;-85
2020/12/09 12:07:50;;;;;;;48.28;24.73;;;6.20;99.90;;;;;;5016480;28;20133;-85
2020/12/09 12:10:16;;;;;;;43.17;24.33;;;6.30;99.90;;;;;;5016123;28;20049;-85
2020/12/09 12:12:43;;;;;;;47.72;27.10;;;6.30;99.90;;;;;;5014612;28;20060;-85
2020/12/09 12:15:10;;;;;;;46.85;26.15;;;6.20;99.90;;;;;;5015801;28;20076;-85
2020/12/09 12:17:36;;;;;;;116.72;73.30;;;6.00;99.90;;;;;;5014459;28;20409;-85
2020/12/09 12:20:03;;;;;;;79.20;41.55;;;5.80;99.90;;;;;;5015465;28;20140;-85
2020/12/09 12:22:30;;;;;;;51.65;29.45;;;5.70;99.90;;;;;;5013347;28;20287;-85
2020/12/09 12:24:56;;;;;;;91.55;46.97;;;5.60;99.90;;;;;;5015375;28;20503;-85
2020/12/09 12:27:22;;;;;;;115.97;66.32;;;5.50;99.90;;;;;;5013744;28;20054;-85
2020/12/09 12:29:48;;;;;;;73.85;43.38;;;5.40;99.90;;;;;;5014701;28;20050;-85
2020/12/09 12:32:15;;;;;;;51.92;30.75;;;5.50;99.90;;;;;;5013634;28;20490;-85
2020/12/09 12:34:41;;;;;;;61.92;36.92;;;5.40;99.90;;;;;;5013807;28;20050;-85
2020/12/09 12:37:07;;;;;;;343.10;115.55;;;5.30;99.90;;;;;;5015453;28;20487;-85
2020/12/09 12:39:33;;;;;;;137.77;55.88;;;5.30;99.90;;;;;;5013492;28;20092;-85
2020/12/09 12:42:00;;;;;;;89.75;39.50;;;5.30;99.90;;;;;;5013640;28;20056;-85